sensor_id;sensor_type;location;lat;lon;timestamp;P1;durP1;ratioP1;P2;durP2;ratioP2
16866;SDS011;8550;52.596;13.320;2023-03-20T00:03:57;6.67;;;1.70;;
16866;SDS011;8550;52.596;13.320;2023-03-20T00:08:59;6.13;;;2.00;;
16866;SDS011;8550;52.596;13.320;2023-03-20T00:14:03;5.32;;;2.25;;
16866;SDS011;8550;52.596;13.320;2023-03-20T00:19:12;4.57;;;2.05;;
16866;SDS011;8550;52.596;13.320;2023-03-20T00:24:16;5.90;;;1.93;;
16866;SDS011;8550;52.596;13.320;2023-03-20T00:29:19;4.22;;;1.98;;
16866;SDS011;8550;52.596;13.320;2023-03-20T00:34:25;5.28;;;2.10;;
16866;SDS011;8550;52.596;13.320;2023-03-20T00:39:30;5.30;;;1.87;;
16866;SDS011;8550;52.596;13.320;2023-03-20T00:44:33;8.40;;;2.10;;
16866;SDS011;8550;52.596;13.320;2023-03-20T00:49:38;6.35;;;2.05;;
16866;SDS011;8550;52.596;13.320;2023-03-20T00:54:40;6.20;;;2.27;;
16866;SDS011;8550;52.596;13.320;2023-03-20T00:59:46;4.77;;;2.20;;
16866;SDS011;8550;52.596;13.320;2023-03-20T01:04:54;4.93;;;1.73;;
16866;SDS011;8550;52.596;13.320;2023-03-20T01:09:57;5.22;;;1.80;;
16866;SDS011;8550;52.596;13.320;2023-03-20T01:14:59;4.87;;;1.90;;
16866;SDS011;8550;52.596;13.320;2023-03-20T01:20:04;5.95;;;2.30;;
16866;SDS011;8550;52.596;13.320;2023-03-20T01:25:14;5.47;;;2.10;;
16866;SDS011;8550;52.596;13.320;2023-03-20T01:30:18;5.37;;;2.07;;
16866;SDS011;8550;52.596;13.320;2023-03-20T01:35:24;6.25;;;2.55;;
16866;SDS011;8550;52.596;13.320;2023-03-20T01:40:30;5.85;;;2.20;;
16866;SDS011;8550;52.596;13.320;2023-03-20T01:45:34;7.80;;;2.30;;
16866;SDS011;8550;52.596;13.320;2023-03-20T01:50:38;5.73;;;2.50;;
16866;SDS011;8550;52.596;13.320;2023-03-20T01:55:40;6.43;;;1.95;;
16866;SDS011;8550;52.596;13.320;2023-03-20T02:00:45;6.07;;;2.22;;
16866;SDS011;8550;52.596;13.320;2023-03-20T02:05:50;5.63;;;2.37;;
16866;SDS011;8550;52.596;13.320;2023-03-20T02:10:53;6.55;;;2.28;;
16866;SDS011;8550;52.596;13.320;2023-03-20T02:16:05;5.57;;;2.17;;
16866;SDS011;8550;52.596;13.320;2023-03-20T02:21:29;4.60;;;2.30;;
16866;SDS011;8550;52.596;13.320;2023-03-20T02:27:05;5.55;;;1.85;;
16866;SDS011;8550;52.596;13.320;2023-03-20T02:32:19;4.45;;;2.20;;
16866;SDS011;8550;52.596;13.320;2023-03-20T02:43:14;7.20;;;2.30;;
16866;SDS011;8550;52.596;13.320;2023-03-20T02:48:26;8.05;;;2.10;;
16866;SDS011;8550;52.596;13.320;2023-03-20T02:53:41;8.25;;;2.40;;
16866;SDS011;8550;52.596;13.320;2023-03-20T02:58:52;5.50;;;2.50;;
16866;SDS011;8550;52.596;13.320;2023-03-20T03:04:03;5.10;;;2.25;;
16866;SDS011;8550;52.596;13.320;2023-03-20T03:09:10;5.93;;;2.58;;
16866;SDS011;8550;52.596;13.320;2023-03-20T03:14:18;6.87;;;2.50;;
16866;SDS011;8550;52.596;13.320;2023-03-20T03:19:27;7.93;;;2.55;;
16866;SDS011;8550;52.596;13.320;2023-03-20T03:24:32;6.63;;;2.58;;
16866;SDS011;8550;52.596;13.320;2023-03-20T03:29:36;6.13;;;3.40;;
16866;SDS011;8550;52.596;13.320;2023-03-20T03:34:39;5.80;;;2.93;;
16866;SDS011;8550;52.596;13.320;2023-03-20T03:39:44;9.65;;;3.33;;
16866;SDS011;8550;52.596;13.320;2023-03-20T03:44:53;7.40;;;3.38;;
16866;SDS011;8550;52.596;13.320;2023-03-20T03:50:00;8.30;;;3.30;;
16866;SDS011;8550;52.596;13.320;2023-03-20T03:55:10;7.55;;;3.28;;
16866;SDS011;8550;52.596;13.320;2023-03-20T04:00:16;9.70;;;3.30;;
16866;SDS011;8550;52.596;13.320;2023-03-20T04:05:22;5.80;;;2.73;;
16866;SDS011;8550;52.596;13.320;2023-03-20T04:10:28;8.68;;;3.20;;
16866;SDS011;8550;52.596;13.320;2023-03-20T04:15:30;10.13;;;3.58;;
16866;SDS011;8550;52.596;13.320;2023-03-20T04:20:32;6.17;;;3.10;;
16866;SDS011;8550;52.596;13.320;2023-03-20T04:25:35;5.93;;;3.00;;
16866;SDS011;8550;52.596;13.320;2023-03-20T04:30:37;6.72;;;3.35;;
16866;SDS011;8550;52.596;13.320;2023-03-20T04:35:39;7.03;;;3.28;;
16866;SDS011;8550;52.596;13.320;2023-03-20T04:40:43;7.07;;;3.30;;
16866;SDS011;8550;52.596;13.320;2023-03-20T04:45:45;7.43;;;3.78;;
16866;SDS011;8550;52.596;13.320;2023-03-20T04:50:47;8.13;;;3.78;;
16866;SDS011;8550;52.596;13.320;2023-03-20T04:55:51;7.87;;;4.07;;
16866;SDS011;8550;52.596;13.320;2023-03-20T05:00:53;6.13;;;3.45;;
16866;SDS011;8550;52.596;13.320;2023-03-20T05:05:55;7.50;;;3.03;;
16866;SDS011;8550;52.596;13.320;2023-03-20T05:10:58;7.60;;;4.00;;
16866;SDS011;8550;52.596;13.320;2023-03-20T05:16:00;6.73;;;3.17;;
16866;SDS011;8550;52.596;13.320;2023-03-20T05:21:02;7.93;;;3.50;;
16866;SDS011;8550;52.596;13.320;2023-03-20T05:26:06;7.60;;;3.97;;
16866;SDS011;8550;52.596;13.320;2023-03-20T05:31:07;9.33;;;3.20;;
16866;SDS011;8550;52.596;13.320;2023-03-20T05:36:09;7.97;;;4.00;;
16866;SDS011;8550;52.596;13.320;2023-03-20T05:41:12;7.97;;;3.92;;
16866;SDS011;8550;52.596;13.320;2023-03-20T05:46:14;8.23;;;4.10;;
16866;SDS011;8550;52.596;13.320;2023-03-20T05:51:16;10.93;;;5.10;;
16866;SDS011;8550;52.596;13.320;2023-03-20T05:56:19;11.07;;;4.35;;
16866;SDS011;8550;52.596;13.320;2023-03-20T06:01:21;9.73;;;4.63;;
16866;SDS011;8550;52.596;13.320;2023-03-20T06:06:23;9.57;;;4.57;;
16866;SDS011;8550;52.596;13.320;2023-03-20T06:11:27;9.77;;;4.53;;
16866;SDS011;8550;52.596;13.320;2023-03-20T06:16:29;10.52;;;4.93;;
16866;SDS011;8550;52.596;13.320;2023-03-20T06:21:31;12.77;;;4.90;;
16866;SDS011;8550;52.596;13.320;2023-03-20T06:26:34;13.35;;;6.10;;
16866;SDS011;8550;52.596;13.320;2023-03-20T06:31:36;13.50;;;6.07;;
16866;SDS011;8550;52.596;13.320;2023-03-20T06:36:38;5.83;;;3.57;;
16866;SDS011;8550;52.596;13.320;2023-03-20T06:41:41;15.18;;;6.07;;
16866;SDS011;8550;52.596;13.320;2023-03-20T06:46:43;20.40;;;8.00;;
16866;SDS011;8550;52.596;13.320;2023-03-20T06:51:45;17.30;;;8.70;;
16866;SDS011;8550;52.596;13.320;2023-03-20T06:56:49;20.33;;;8.37;;
16866;SDS011;8550;52.596;13.320;2023-03-20T07:01:51;20.95;;;8.27;;
16866;SDS011;8550;52.596;13.320;2023-03-20T07:06:53;19.10;;;8.20;;
16866;SDS011;8550;52.596;13.320;2023-03-20T07:11:56;20.07;;;7.70;;
16866;SDS011;8550;52.596;13.320;2023-03-20T07:16:59;20.25;;;7.22;;
16866;SDS011;8550;52.596;13.320;2023-03-20T07:22:01;18.67;;;7.60;;
16866;SDS011;8550;52.596;13.320;2023-03-20T07:27:06;20.43;;;8.87;;
16866;SDS011;8550;52.596;13.320;2023-03-20T07:32:08;20.27;;;8.20;;
16866;SDS011;8550;52.596;13.320;2023-03-20T07:37:10;20.95;;;8.00;;
16866;SDS011;8550;52.596;13.320;2023-03-20T07:42:14;18.40;;;8.13;;
16866;SDS011;8550;52.596;13.320;2023-03-20T07:47:16;16.90;;;6.63;;
16866;SDS011;8550;52.596;13.320;2023-03-20T07:52:18;22.95;;;7.70;;
16866;SDS011;8550;52.596;13.320;2023-03-20T07:57:22;21.65;;;7.80;;
16866;SDS011;8550;52.596;13.320;2023-03-20T08:02:24;17.67;;;7.63;;
16866;SDS011;8550;52.596;13.320;2023-03-20T08:07:25;15.70;;;7.18;;
16866;SDS011;8550;52.596;13.320;2023-03-20T08:12:30;19.25;;;7.80;;
16866;SDS011;8550;52.596;13.320;2023-03-20T08:17:32;20.63;;;7.17;;
16866;SDS011;8550;52.596;13.320;2023-03-20T08:22:34;18.70;;;7.38;;
16866;SDS011;8550;52.596;13.320;2023-03-20T08:27:37;18.90;;;8.38;;
16866;SDS011;8550;52.596;13.320;2023-03-20T08:32:39;17.27;;;6.67;;
16866;SDS011;8550;52.596;13.320;2023-03-20T08:37:42;16.73;;;7.30;;
16866;SDS011;8550;52.596;13.320;2023-03-20T08:42:45;18.30;;;6.20;;
16866;SDS011;8550;52.596;13.320;2023-03-20T08:47:48;19.20;;;6.75;;
16866;SDS011;8550;52.596;13.320;2023-03-20T08:52:50;17.33;;;5.67;;
16866;SDS011;8550;52.596;13.320;2023-03-20T08:57:54;15.15;;;5.35;;
16866;SDS011;8550;52.596;13.320;2023-03-20T09:02:56;15.32;;;6.63;;
16866;SDS011;8550;52.596;13.320;2023-03-20T09:07:58;12.87;;;5.73;;
16866;SDS011;8550;52.596;13.320;2023-03-20T09:13:02;18.40;;;5.97;;
16866;SDS011;8550;52.596;13.320;2023-03-20T09:18:04;13.05;;;5.95;;
16866;SDS011;8550;52.596;13.320;2023-03-20T09:23:06;11.37;;;5.10;;
16866;SDS011;8550;52.596;13.320;2023-03-20T09:28:09;10.23;;;3.93;;
16866;SDS011;8550;52.596;13.320;2023-03-20T09:33:11;11.23;;;4.10;;
16866;SDS011;8550;52.596;13.320;2023-03-20T09:38:14;10.82;;;4.00;;
16866;SDS011;8550;52.596;13.320;2023-03-20T09:43:19;5.43;;;2.67;;
16866;SDS011;8550;52.596;13.320;2023-03-20T09:48:28;11.60;;;4.55;;
16866;SDS011;8550;52.596;13.320;2023-03-20T09:53:35;8.43;;;3.85;;
16866;SDS011;8550;52.596;13.320;2023-03-20T09:58:42;8.17;;;3.53;;
16866;SDS011;8550;52.596;13.320;2023-03-20T10:03:52;11.43;;;4.07;;
16866;SDS011;8550;52.596;13.320;2023-03-20T10:08:56;9.43;;;3.40;;
16866;SDS011;8550;52.596;13.320;2023-03-20T10:14:02;11.27;;;3.30;;
16866;SDS011;8550;52.596;13.320;2023-03-20T10:19:15;11.03;;;3.90;;
16866;SDS011;8550;52.596;13.320;2023-03-20T10:24:24;9.45;;;3.78;;
16866;SDS011;8550;52.596;13.320;2023-03-20T10:29:34;10.18;;;3.85;;
16866;SDS011;8550;52.596;13.320;2023-03-20T10:34:52;8.70;;;2.77;;
16866;SDS011;8550;52.596;13.320;2023-03-20T10:40:02;8.80;;;2.60;;
16866;SDS011;8550;52.596;13.320;2023-03-20T10:45:25;10.35;;;3.08;;
16866;SDS011;8550;52.596;13.320;2023-03-20T10:50:34;4.60;;;2.20;;
16866;SDS011;8550;52.596;13.320;2023-03-20T10:55:39;7.60;;;2.58;;
16866;SDS011;8550;52.596;13.320;2023-03-20T11:00:46;6.72;;;2.33;;
16866;SDS011;8550;52.596;13.320;2023-03-20T11:05:50;5.77;;;2.07;;
16866;SDS011;8550;52.596;13.320;2023-03-20T11:10:57;8.07;;;2.50;;
16866;SDS011;8550;52.596;13.320;2023-03-20T11:16:09;9.52;;;3.42;;
16866;SDS011;8550;52.596;13.320;2023-03-20T11:21:21;6.13;;;2.13;;
16866;SDS011;8550;52.596;13.320;2023-03-20T11:26:31;7.73;;;3.33;;
16866;SDS011;8550;52.596;13.320;2023-03-20T11:31:37;6.97;;;2.63;;
16866;SDS011;8550;52.596;13.320;2023-03-20T11:36:44;7.80;;;2.58;;
16866;SDS011;8550;52.596;13.320;2023-03-20T11:41:53;9.07;;;2.97;;
16866;SDS011;8550;52.596;13.320;2023-03-20T11:46:59;7.07;;;2.55;;
16866;SDS011;8550;52.596;13.320;2023-03-20T11:52:09;7.38;;;2.85;;
16866;SDS011;8550;52.596;13.320;2023-03-20T11:57:22;8.43;;;2.73;;
16866;SDS011;8550;52.596;13.320;2023-03-20T12:02:32;5.40;;;2.20;;
16866;SDS011;8550;52.596;13.320;2023-03-20T12:07:36;7.85;;;3.17;;
16866;SDS011;8550;52.596;13.320;2023-03-20T12:12:39;8.65;;;2.75;;
16866;SDS011;8550;52.596;13.320;2023-03-20T12:17:48;8.43;;;2.77;;
16866;SDS011;8550;52.596;13.320;2023-03-20T12:23:02;9.52;;;4.13;;
16866;SDS011;8550;52.596;13.320;2023-03-20T12:28:13;8.68;;;3.33;;
16866;SDS011;8550;52.596;13.320;2023-03-20T12:33:25;9.23;;;3.60;;
16866;SDS011;8550;52.596;13.320;2023-03-20T12:38:38;8.15;;;3.15;;
16866;SDS011;8550;52.596;13.320;2023-03-20T12:43:48;10.73;;;3.58;;
16866;SDS011;8550;52.596;13.320;2023-03-20T12:49:19;9.10;;;3.57;;
16866;SDS011;8550;52.596;13.320;2023-03-20T12:54:33;6.77;;;2.60;;
16866;SDS011;8550;52.596;13.320;2023-03-20T12:59:45;8.25;;;2.28;;
16866;SDS011;8550;52.596;13.320;2023-03-20T13:04:57;7.85;;;2.67;;
16866;SDS011;8550;52.596;13.320;2023-03-20T13:10:08;9.87;;;3.13;;
16866;SDS011;8550;52.596;13.320;2023-03-20T13:15:25;9.80;;;3.53;;
16866;SDS011;8550;52.596;13.320;2023-03-20T13:20:37;12.20;;;3.53;;
16866;SDS011;8550;52.596;13.320;2023-03-20T13:25:50;7.83;;;2.83;;
16866;SDS011;8550;52.596;13.320;2023-03-20T13:31:04;9.75;;;3.75;;
16866;SDS011;8550;52.596;13.320;2023-03-20T13:36:19;10.07;;;4.15;;
16866;SDS011;8550;52.596;13.320;2023-03-20T13:41:29;13.57;;;4.57;;
16866;SDS011;8550;52.596;13.320;2023-03-20T13:46:35;10.77;;;3.47;;
16866;SDS011;8550;52.596;13.320;2023-03-20T13:51:43;12.02;;;4.65;;
16866;SDS011;8550;52.596;13.320;2023-03-20T13:56:55;7.28;;;2.85;;
16866;SDS011;8550;52.596;13.320;2023-03-20T14:02:03;14.80;;;4.10;;
16866;SDS011;8550;52.596;13.320;2023-03-20T14:07:28;7.80;;;3.20;;
16866;SDS011;8550;52.596;13.320;2023-03-20T14:12:32;10.88;;;4.15;;
16866;SDS011;8550;52.596;13.320;2023-03-20T14:17:34;12.80;;;4.30;;
16866;SDS011;8550;52.596;13.320;2023-03-20T14:22:44;11.13;;;3.67;;
16866;SDS011;8550;52.596;13.320;2023-03-20T14:27:58;16.52;;;4.55;;
16866;SDS011;8550;52.596;13.320;2023-03-20T14:33:07;13.03;;;4.03;;
16866;SDS011;8550;52.596;13.320;2023-03-20T14:38:28;11.00;;;2.97;;
16866;SDS011;8550;52.596;13.320;2023-03-20T14:43:41;12.75;;;4.10;;
16866;SDS011;8550;52.596;13.320;2023-03-20T14:48:58;12.30;;;4.60;;
16866;SDS011;8550;52.596;13.320;2023-03-20T14:54:25;8.80;;;3.40;;
16866;SDS011;8550;52.596;13.320;2023-03-20T14:59:29;13.13;;;5.65;;
16866;SDS011;8550;52.596;13.320;2023-03-20T15:04:34;11.50;;;4.63;;
16866;SDS011;8550;52.596;13.320;2023-03-20T15:09:40;13.87;;;5.20;;
16866;SDS011;8550;52.596;13.320;2023-03-20T15:14:44;11.00;;;4.22;;
16866;SDS011;8550;52.596;13.320;2023-03-20T15:19:57;11.07;;;4.45;;
16866;SDS011;8550;52.596;13.320;2023-03-20T15:25:03;13.50;;;4.10;;
16866;SDS011;8550;52.596;13.320;2023-03-20T15:30:06;12.47;;;4.40;;
16866;SDS011;8550;52.596;13.320;2023-03-20T15:35:11;12.80;;;4.88;;
16866;SDS011;8550;52.596;13.320;2023-03-20T15:40:20;10.38;;;4.60;;
16866;SDS011;8550;52.596;13.320;2023-03-20T15:45:26;11.87;;;3.93;;
16866;SDS011;8550;52.596;13.320;2023-03-20T15:50:32;10.70;;;4.13;;
16866;SDS011;8550;52.596;13.320;2023-03-20T15:55:36;12.93;;;3.70;;
16866;SDS011;8550;52.596;13.320;2023-03-20T16:00:41;10.43;;;4.23;;
16866;SDS011;8550;52.596;13.320;2023-03-20T16:05:47;10.65;;;3.72;;
16866;SDS011;8550;52.596;13.320;2023-03-20T16:10:55;8.48;;;4.05;;
16866;SDS011;8550;52.596;13.320;2023-03-20T16:15:58;12.10;;;4.60;;
16866;SDS011;8550;52.596;13.320;2023-03-20T16:21:02;13.73;;;5.40;;
16866;SDS011;8550;52.596;13.320;2023-03-20T16:26:10;10.90;;;4.07;;
16866;SDS011;8550;52.596;13.320;2023-03-20T16:31:16;15.98;;;4.93;;
16866;SDS011;8550;52.596;13.320;2023-03-20T16:36:25;9.83;;;3.73;;
16866;SDS011;8550;52.596;13.320;2023-03-20T16:41:32;14.27;;;5.07;;
16866;SDS011;8550;52.596;13.320;2023-03-20T16:46:35;12.95;;;4.07;;
16866;SDS011;8550;52.596;13.320;2023-03-20T16:51:37;10.83;;;3.60;;
16866;SDS011;8550;52.596;13.320;2023-03-20T16:56:40;9.35;;;3.90;;
16866;SDS011;8550;52.596;13.320;2023-03-20T17:01:43;11.52;;;4.18;;
16866;SDS011;8550;52.596;13.320;2023-03-20T17:06:47;11.20;;;4.03;;
16866;SDS011;8550;52.596;13.320;2023-03-20T17:11:58;12.87;;;4.27;;
16866;SDS011;8550;52.596;13.320;2023-03-20T17:17:03;11.23;;;4.10;;
16866;SDS011;8550;52.596;13.320;2023-03-20T17:22:10;11.77;;;4.70;;
16866;SDS011;8550;52.596;13.320;2023-03-20T17:27:17;8.30;;;3.80;;
16866;SDS011;8550;52.596;13.320;2023-03-20T17:32:20;14.65;;;6.97;;
16866;SDS011;8550;52.596;13.320;2023-03-20T17:37:24;9.95;;;4.30;;
16866;SDS011;8550;52.596;13.320;2023-03-20T17:42:29;12.00;;;4.43;;
16866;SDS011;8550;52.596;13.320;2023-03-20T17:47:31;17.00;;;6.85;;
16866;SDS011;8550;52.596;13.320;2023-03-20T17:52:33;13.38;;;5.82;;
16866;SDS011;8550;52.596;13.320;2023-03-20T17:57:37;10.97;;;4.10;;
16866;SDS011;8550;52.596;13.320;2023-03-20T18:02:39;14.07;;;5.13;;
16866;SDS011;8550;52.596;13.320;2023-03-20T18:07:41;14.00;;;5.03;;
16866;SDS011;8550;52.596;13.320;2023-03-20T18:12:45;12.70;;;4.82;;
16866;SDS011;8550;52.596;13.320;2023-03-20T18:17:47;10.60;;;5.13;;
16866;SDS011;8550;52.596;13.320;2023-03-20T18:22:49;9.75;;;4.53;;
16866;SDS011;8550;52.596;13.320;2023-03-20T18:27:52;12.75;;;4.90;;
16866;SDS011;8550;52.596;13.320;2023-03-20T18:32:55;11.60;;;5.03;;
16866;SDS011;8550;52.596;13.320;2023-03-20T18:37:58;12.77;;;4.13;;
16866;SDS011;8550;52.596;13.320;2023-03-20T18:43:02;9.88;;;4.40;;
16866;SDS011;8550;52.596;13.320;2023-03-20T18:48:04;13.23;;;4.50;;
16866;SDS011;8550;52.596;13.320;2023-03-20T18:53:07;10.90;;;4.57;;
16866;SDS011;8550;52.596;13.320;2023-03-20T18:58:14;13.85;;;4.78;;
16866;SDS011;8550;52.596;13.320;2023-03-20T19:03:21;14.23;;;4.57;;
16866;SDS011;8550;52.596;13.320;2023-03-20T19:08:24;17.40;;;5.30;;
16866;SDS011;8550;52.596;13.320;2023-03-20T19:13:27;14.50;;;6.22;;
16866;SDS011;8550;52.596;13.320;2023-03-20T19:18:29;12.27;;;4.55;;
16866;SDS011;8550;52.596;13.320;2023-03-20T19:23:31;16.10;;;5.07;;
16866;SDS011;8550;52.596;13.320;2023-03-20T19:28:34;10.65;;;4.50;;
16866;SDS011;8550;52.596;13.320;2023-03-20T19:33:38;14.15;;;4.72;;
16866;SDS011;8550;52.596;13.320;2023-03-20T19:38:40;11.87;;;4.80;;
16866;SDS011;8550;52.596;13.320;2023-03-20T19:43:43;10.87;;;5.23;;
16866;SDS011;8550;52.596;13.320;2023-03-20T19:48:45;9.02;;;4.40;;
16866;SDS011;8550;52.596;13.320;2023-03-20T19:53:47;13.63;;;5.90;;
16866;SDS011;8550;52.596;13.320;2023-03-20T19:58:51;53.77;;;26.00;;
16866;SDS011;8550;52.596;13.320;2023-03-20T20:03:53;13.27;;;6.38;;
16866;SDS011;8550;52.596;13.320;2023-03-20T20:08:57;16.95;;;7.43;;
16866;SDS011;8550;52.596;13.320;2023-03-20T20:14:01;10.97;;;4.20;;
16866;SDS011;8550;52.596;13.320;2023-03-20T20:19:04;15.07;;;7.53;;
16866;SDS011;8550;52.596;13.320;2023-03-20T20:24:06;15.77;;;5.87;;
16866;SDS011;8550;52.596;13.320;2023-03-20T20:29:09;11.13;;;4.40;;
16866;SDS011;8550;52.596;13.320;2023-03-20T20:34:11;9.77;;;4.80;;
16866;SDS011;8550;52.596;13.320;2023-03-20T20:39:13;12.88;;;3.95;;
16866;SDS011;8550;52.596;13.320;2023-03-20T20:44:16;12.83;;;5.43;;
16866;SDS011;8550;52.596;13.320;2023-03-20T20:49:18;13.98;;;5.80;;
16866;SDS011;8550;52.596;13.320;2023-03-20T20:54:20;17.05;;;6.50;;
16866;SDS011;8550;52.596;13.320;2023-03-20T20:59:23;22.20;;;7.87;;
16866;SDS011;8550;52.596;13.320;2023-03-20T21:04:26;20.58;;;7.50;;
16866;SDS011;8550;52.596;13.320;2023-03-20T21:09:28;17.17;;;8.18;;
16866;SDS011;8550;52.596;13.320;2023-03-20T21:14:31;16.73;;;7.10;;
16866;SDS011;8550;52.596;13.320;2023-03-20T21:19:34;12.17;;;6.33;;
16866;SDS011;8550;52.596;13.320;2023-03-20T21:24:37;12.82;;;6.70;;
16866;SDS011;8550;52.596;13.320;2023-03-20T21:29:42;11.82;;;5.75;;
16866;SDS011;8550;52.596;13.320;2023-03-20T21:34:46;11.33;;;5.43;;
16866;SDS011;8550;52.596;13.320;2023-03-20T21:39:49;11.45;;;4.80;;
16866;SDS011;8550;52.596;13.320;2023-03-20T21:44:53;11.50;;;5.03;;
16866;SDS011;8550;52.596;13.320;2023-03-20T21:49:55;10.40;;;4.97;;
16866;SDS011;8550;52.596;13.320;2023-03-20T21:54:57;10.55;;;4.80;;
16866;SDS011;8550;52.596;13.320;2023-03-20T22:00:02;10.73;;;5.13;;
16866;SDS011;8550;52.596;13.320;2023-03-20T22:05:06;10.53;;;4.67;;
16866;SDS011;8550;52.596;13.320;2023-03-20T22:10:09;11.53;;;5.80;;
16866;SDS011;8550;52.596;13.320;2023-03-20T22:15:12;10.80;;;4.63;;
16866;SDS011;8550;52.596;13.320;2023-03-20T22:20:14;8.05;;;4.15;;
16866;SDS011;8550;52.596;13.320;2023-03-20T22:25:17;11.23;;;4.90;;
16866;SDS011;8550;52.596;13.320;2023-03-20T22:30:20;8.95;;;4.25;;
16866;SDS011;8550;52.596;13.320;2023-03-20T22:35:22;10.50;;;4.68;;
16866;SDS011;8550;52.596;13.320;2023-03-20T22:40:24;11.47;;;5.03;;
16866;SDS011;8550;52.596;13.320;2023-03-20T22:45:28;9.80;;;4.45;;
16866;SDS011;8550;52.596;13.320;2023-03-20T22:50:30;12.15;;;6.10;;
16866;SDS011;8550;52.596;13.320;2023-03-20T22:55:32;9.23;;;4.77;;
16866;SDS011;8550;52.596;13.320;2023-03-20T23:00:35;10.03;;;4.30;;
16866;SDS011;8550;52.596;13.320;2023-03-20T23:05:38;10.77;;;4.60;;
16866;SDS011;8550;52.596;13.320;2023-03-20T23:10:41;7.93;;;4.25;;
16866;SDS011;8550;52.596;13.320;2023-03-20T23:15:45;8.10;;;3.17;;
16866;SDS011;8550;52.596;13.320;2023-03-20T23:20:49;7.03;;;3.25;;
16866;SDS011;8550;52.596;13.320;2023-03-20T23:26:00;6.53;;;3.20;;
16866;SDS011;8550;52.596;13.320;2023-03-20T23:31:06;8.90;;;3.73;;
16866;SDS011;8550;52.596;13.320;2023-03-20T23:36:09;10.27;;;4.22;;
16866;SDS011;8550;52.596;13.320;2023-03-20T23:41:12;7.20;;;3.50;;
16866;SDS011;8550;52.596;13.320;2023-03-20T23:46:16;8.00;;;3.27;;
16866;SDS011;8550;52.596;13.320;2023-03-20T23:51:18;8.53;;;3.30;;
16866;SDS011;8550;52.596;13.320;2023-03-20T23:56:20;7.20;;;3.42;;
